createdAt,value
2018-09-28T00:00:55.520Z,7.30
2018-09-28T00:03:23.664Z,7.60
2018-09-28T00:05:51.800Z,8.10
2018-09-28T00:08:19.972Z,8.17
2018-09-28T00:10:48.148Z,9.27
2018-09-28T00:13:16.250Z,8.67
2018-09-28T00:15:44.442Z,8.13
2018-09-28T00:18:12.511Z,7.50
2018-09-28T00:20:40.637Z,12.07
2018-09-28T00:23:08.715Z,8.03
2018-09-28T00:25:36.812Z,7.77
2018-09-28T00:28:05.049Z,10.87
2018-09-28T00:30:33.165Z,6.80
2018-09-28T00:33:01.225Z,6.67
2018-09-28T00:35:29.317Z,7.80
2018-09-28T00:37:57.460Z,7.53
2018-09-28T00:40:25.635Z,7.13
2018-09-28T00:42:53.696Z,7.90
2018-09-28T00:45:21.835Z,8.23
2018-09-28T00:47:49.946Z,7.30
2018-09-28T00:50:18.215Z,7.60
2018-09-28T00:52:46.409Z,7.70
2018-09-28T00:55:14.571Z,10.43
2018-09-28T00:57:42.678Z,7.40
2018-09-28T01:00:10.844Z,6.87
2018-09-28T01:02:39.029Z,7.60
2018-09-28T01:05:07.384Z,7.00
2018-09-28T01:07:35.473Z,7.10
2018-09-28T01:10:03.854Z,7.20
2018-09-28T01:12:31.911Z,10.70
2018-09-28T01:14:59.993Z,8.23
2018-09-28T01:17:28.687Z,8.10
2018-09-28T01:19:56.988Z,8.60
2018-09-28T01:22:25.119Z,7.83
2018-09-28T01:24:53.612Z,7.50
2018-09-28T01:27:21.966Z,7.17
2018-09-28T01:29:50.102Z,10.40
2018-09-28T01:32:18.432Z,7.17
2018-09-28T01:34:46.728Z,7.80
2018-09-28T01:37:14.821Z,7.90
2018-09-28T01:39:42.964Z,10.97
2018-09-28T01:42:11.661Z,7.50
2018-09-28T01:44:39.800Z,7.17
2018-09-28T01:47:08.169Z,7.90
2018-09-28T01:49:36.244Z,7.53
2018-09-28T01:52:04.464Z,6.87
2018-09-28T01:54:32.821Z,7.33
2018-09-28T01:57:00.895Z,7.80
2018-09-28T01:59:29.087Z,8.57
2018-09-28T02:01:57.288Z,8.33
2018-09-28T02:04:25.421Z,8.63
2018-09-28T02:06:53.599Z,8.40
2018-09-28T02:09:21.825Z,9.03
2018-09-28T02:11:49.992Z,8.00
2018-09-28T02:14:18.245Z,8.73
2018-09-28T02:16:46.321Z,8.20
2018-09-28T02:19:14.409Z,7.70
2018-09-28T02:21:42.549Z,8.73
2018-09-28T02:24:10.665Z,8.10
2018-09-28T02:26:38.765Z,9.10
2018-09-28T02:29:06.868Z,9.17
2018-09-28T02:31:35.013Z,10.00
2018-09-28T02:34:03.113Z,11.53
2018-09-28T02:36:31.180Z,9.20
2018-09-28T02:38:59.473Z,8.77
2018-09-28T02:41:27.545Z,8.40
2018-09-28T02:43:55.885Z,11.00
2018-09-28T02:46:24.005Z,9.03
2018-09-28T02:48:52.099Z,8.27
2018-09-28T02:51:20.391Z,9.20
2018-09-28T02:53:48.631Z,8.20
2018-09-28T02:56:16.896Z,7.90
2018-09-28T02:58:45.097Z,8.17
2018-09-28T03:01:13.180Z,7.63
2018-09-28T03:03:41.377Z,7.63
2018-09-28T03:06:09.511Z,9.10
2018-09-28T03:08:38.422Z,10.23
2018-09-28T03:11:06.712Z,8.20
2018-09-28T03:13:34.885Z,9.87
2018-09-28T03:16:03.639Z,7.87
2018-09-28T03:18:31.742Z,8.37
2018-09-28T03:21:00.912Z,7.83
2018-09-28T03:23:29.083Z,9.23
2018-09-28T03:25:57.176Z,9.80
2018-09-28T03:28:25.541Z,7.60
2018-09-28T03:30:53.716Z,8.70
2018-09-28T03:33:21.789Z,7.83
2018-09-28T03:35:50.152Z,8.30
2018-09-28T03:38:18.275Z,8.00
2018-09-28T03:40:46.406Z,9.60
2018-09-28T03:43:14.590Z,11.13
2018-09-28T03:45:42.786Z,12.13
2018-09-28T03:48:10.869Z,7.97
2018-09-28T03:50:38.963Z,9.30
2018-09-28T03:53:07.089Z,9.40
2018-09-28T03:55:35.186Z,7.90
2018-09-28T03:58:03.251Z,9.00
2018-09-28T04:00:31.319Z,9.53
2018-09-28T04:02:59.544Z,9.10
2018-09-28T04:05:27.769Z,9.27
2018-09-28T04:07:55.873Z,8.33
2018-09-28T04:10:24.109Z,9.00
2018-09-28T04:12:52.229Z,9.93
2018-09-28T04:15:20.394Z,10.77
2018-09-28T04:17:48.461Z,8.37
2018-09-28T04:20:16.608Z,9.00
2018-09-28T04:22:44.673Z,8.90
2018-09-28T04:25:12.834Z,9.53
2018-09-28T04:27:41.049Z,8.07
2018-09-28T04:30:09.324Z,11.53
2018-09-28T04:32:37.592Z,8.97
2018-09-28T04:35:05.881Z,8.70
2018-09-28T04:37:34.137Z,8.97
2018-09-28T04:40:02.242Z,8.17
2018-09-28T04:42:31.113Z,9.10
2018-09-28T04:44:59.193Z,8.30
2018-09-28T04:47:27.308Z,8.70
2018-09-28T04:49:55.476Z,7.70
2018-09-28T04:52:23.703Z,10.20
2018-09-28T04:54:51.813Z,9.40
2018-09-28T04:57:20.252Z,8.00
2018-09-28T04:59:48.321Z,8.07
2018-09-28T05:02:16.768Z,8.90
2018-09-28T05:04:44.901Z,8.37
2018-09-28T05:07:13.006Z,9.20
2018-09-28T05:09:41.229Z,9.40
2018-09-28T05:12:09.430Z,10.23
2018-09-28T05:14:39.271Z,13.77
2018-09-28T05:17:07.354Z,9.93
2018-09-28T05:19:35.488Z,9.83
2018-09-28T05:22:03.818Z,9.40
2018-09-28T05:24:31.966Z,9.07
2018-09-28T05:27:00.037Z,9.10
2018-09-28T05:29:28.225Z,8.97
2018-09-28T05:31:56.514Z,8.70
2018-09-28T05:34:24.926Z,8.47
2018-09-28T05:36:53.169Z,8.07
2018-09-28T05:39:21.428Z,8.53
2018-09-28T05:41:49.768Z,8.13
2018-09-28T05:44:17.950Z,8.70
2018-09-28T05:46:46.033Z,8.13
2018-09-28T05:49:14.220Z,8.50
2018-09-28T05:51:42.311Z,11.80
2018-09-28T05:54:10.675Z,7.60
2018-09-28T05:56:38.884Z,8.00
2018-09-28T05:59:12.370Z,9.83
2018-09-28T06:01:45.823Z,8.53
2018-09-28T06:04:19.600Z,8.30
2018-09-28T06:06:47.719Z,7.53
2018-09-28T06:09:16.021Z,9.83
2018-09-28T06:11:44.178Z,7.90
2018-09-28T06:14:12.240Z,9.00
2018-09-28T06:16:40.387Z,8.13
2018-09-28T06:19:08.486Z,8.90
2018-09-28T06:21:36.650Z,10.17
2018-09-28T06:24:04.761Z,9.67
2018-09-28T06:26:33.017Z,9.47
2018-09-28T06:29:01.076Z,9.43
2018-09-28T06:31:29.221Z,13.30
2018-09-28T06:33:57.291Z,10.13
2018-09-28T06:36:25.543Z,13.33
2018-09-28T06:38:53.981Z,9.63
2018-09-28T06:41:22.162Z,12.33
2018-09-28T06:43:50.379Z,14.67
2018-09-28T06:46:18.504Z,10.90
2018-09-28T06:48:46.593Z,10.87
2018-09-28T06:51:14.748Z,12.87
2018-09-28T06:53:43.023Z,9.60
2018-09-28T06:56:11.373Z,13.70
2018-09-28T06:58:39.438Z,15.13
2018-09-28T07:01:07.560Z,11.93
2018-09-28T07:03:35.662Z,11.03
2018-09-28T07:06:03.798Z,10.23
2018-09-28T07:08:32.170Z,13.70
2018-09-28T07:11:00.283Z,14.93
2018-09-28T07:13:28.454Z,10.43
2018-09-28T07:15:56.644Z,10.30
2018-09-28T07:18:24.946Z,16.03
2018-09-28T07:20:53.225Z,13.50
2018-09-28T07:23:21.386Z,11.37
2018-09-28T07:25:49.477Z,13.23
2018-09-28T07:28:17.633Z,12.60
2018-09-28T07:30:45.718Z,10.87
2018-09-28T07:33:13.943Z,12.57
2018-09-28T07:35:42.065Z,18.37
2018-09-28T07:38:10.516Z,12.67
2018-09-28T07:40:38.668Z,10.73
2018-09-28T07:43:06.992Z,11.50
2018-09-28T07:45:35.185Z,11.57
2018-09-28T07:48:03.293Z,9.23
2018-09-28T07:50:31.741Z,8.20
2018-09-28T07:52:59.838Z,12.40
2018-09-28T07:55:28.190Z,7.47
2018-09-28T07:57:56.972Z,9.03
2018-09-28T08:00:25.217Z,9.17
2018-09-28T08:02:53.296Z,6.93
2018-09-28T08:05:21.694Z,9.30
2018-09-28T08:07:50.125Z,6.60
2018-09-28T08:10:18.232Z,7.00
2018-09-28T08:12:46.424Z,10.57
2018-09-28T08:15:14.697Z,8.70
2018-09-28T08:17:43.816Z,8.77
2018-09-28T08:20:12.191Z,8.40
2018-09-28T08:22:40.404Z,8.20
2018-09-28T08:25:08.496Z,14.00
2018-09-28T08:27:36.593Z,6.37
2018-09-28T08:30:05.051Z,8.57
2018-09-28T08:32:33.445Z,8.03
2018-09-28T08:35:01.640Z,5.50
2018-09-28T08:37:29.994Z,5.87
2018-09-28T08:39:58.316Z,7.20
2018-09-28T08:42:26.629Z,7.80
2018-09-28T08:44:54.827Z,7.20
2018-09-28T08:47:22.932Z,6.73
2018-09-28T08:49:51.125Z,6.57
2018-09-28T08:52:19.236Z,6.40
2018-09-28T08:54:47.370Z,5.50
2018-09-28T08:57:15.613Z,6.40
2018-09-28T08:59:43.753Z,8.50
2018-09-28T09:02:12.631Z,7.30
2018-09-28T09:04:40.856Z,6.93
2018-09-28T09:07:08.925Z,8.10
2018-09-28T09:09:37.046Z,7.57
2018-09-28T09:12:05.217Z,6.47
2018-09-28T09:14:33.365Z,6.80
2018-09-28T09:17:01.717Z,7.17
2018-09-28T09:19:29.809Z,5.40
2018-09-28T09:21:57.908Z,5.63
2018-09-28T09:24:26.152Z,14.10
2018-09-28T09:26:54.563Z,22.07
2018-09-28T09:29:22.790Z,39.07
2018-09-28T09:31:50.909Z,8.93
2018-09-28T09:34:19.099Z,16.37
2018-09-28T09:36:47.968Z,14.90
2018-09-28T09:39:16.038Z,9.47
2018-09-28T09:41:44.233Z,9.03
2018-09-28T09:44:12.988Z,14.30
2018-09-28T09:46:41.069Z,13.03
2018-09-28T09:49:09.281Z,9.13
2018-09-28T09:51:37.622Z,11.33
2018-09-28T09:54:05.802Z,9.60
2018-09-28T09:56:34.181Z,13.43
2018-09-28T09:59:02.338Z,10.23
2018-09-28T10:01:36.236Z,10.83
2018-09-28T10:04:07.828Z,11.87
2018-09-28T10:06:35.886Z,8.20
2018-09-28T10:09:06.505Z,13.30
2018-09-28T10:11:34.625Z,9.53
2018-09-28T10:14:02.957Z,9.30
2018-09-28T10:16:31.737Z,8.10
2018-09-28T10:18:59.856Z,9.03
2018-09-28T10:21:28.049Z,8.50
2018-09-28T10:23:56.170Z,7.97
2018-09-28T10:26:24.367Z,8.07
2018-09-28T10:28:52.617Z,7.87
2018-09-28T10:31:20.709Z,9.50
2018-09-28T10:33:48.796Z,9.23
2018-09-28T10:36:16.868Z,12.23
2018-09-28T10:38:45.218Z,9.37
2018-09-28T10:41:13.467Z,7.53
2018-09-28T10:43:41.722Z,7.00
2018-09-28T10:46:09.778Z,7.87
2018-09-28T10:48:37.865Z,6.60
2018-09-28T10:51:06.024Z,9.33
2018-09-28T10:53:34.372Z,6.43
2018-09-28T10:56:02.790Z,6.53
2018-09-28T10:58:31.019Z,10.97
2018-09-28T11:00:59.361Z,4.23
2018-09-28T11:03:27.529Z,5.50
2018-09-28T11:05:55.799Z,4.60
2018-09-28T11:08:24.042Z,4.37
2018-09-28T11:10:52.898Z,6.70
2018-09-28T11:13:21.035Z,4.83
2018-09-28T11:15:49.309Z,4.57
2018-09-28T11:18:17.714Z,5.40
2018-09-28T11:20:45.964Z,5.53
2018-09-28T11:23:14.057Z,3.63
2018-09-28T11:25:42.228Z,4.30
2018-09-28T11:28:10.377Z,3.90
2018-09-28T11:30:38.449Z,4.73
2018-09-28T11:33:06.599Z,3.83
2018-09-28T11:35:34.981Z,7.53
2018-09-28T11:38:03.461Z,7.40
2018-09-28T11:40:31.553Z,3.93
2018-09-28T11:42:59.790Z,4.23
2018-09-28T11:45:28.003Z,6.17
2018-09-28T11:47:56.281Z,6.73
2018-09-28T11:50:24.456Z,5.87
2018-09-28T11:52:52.688Z,6.60
2018-09-28T11:55:20.861Z,7.97
2018-09-28T11:57:49.026Z,6.57
2018-09-28T12:00:17.295Z,7.30
2018-09-28T12:02:45.368Z,5.70
2018-09-28T12:05:14.326Z,6.33
2018-09-28T12:07:42.524Z,8.17
2018-09-28T12:10:10.677Z,5.80
2018-09-28T12:12:38.814Z,5.40
2018-09-28T12:15:07.164Z,5.90
2018-09-28T12:17:35.550Z,6.83
2018-09-28T12:20:03.898Z,8.03
2018-09-28T12:22:31.969Z,6.13
2018-09-28T12:25:00.110Z,8.60
2018-09-28T12:27:28.239Z,7.10
2018-09-28T12:29:56.606Z,7.10
2018-09-28T12:32:24.682Z,6.53
2018-09-28T12:34:52.892Z,5.13
2018-09-28T12:37:21.014Z,6.30
2018-09-28T12:39:49.285Z,7.77
2018-09-28T12:42:17.675Z,7.03
2018-09-28T12:44:46.130Z,6.00
2018-09-28T12:47:14.561Z,5.23
2018-09-28T12:49:42.782Z,7.70
2018-09-28T12:52:11.180Z,6.00
2018-09-28T12:54:39.315Z,7.43
2018-09-28T12:57:07.668Z,6.17
2018-09-28T12:59:35.762Z,10.40
2018-09-28T13:02:04.265Z,9.27
2018-09-28T13:04:32.477Z,4.30
2018-09-28T13:07:00.660Z,5.07
2018-09-28T13:09:28.892Z,5.57
2018-09-28T13:11:57.126Z,5.87
2018-09-28T13:14:25.382Z,7.73
2018-09-28T13:16:53.610Z,4.13
2018-09-28T13:19:21.892Z,5.30
2018-09-28T13:21:50.073Z,6.87
2018-09-28T13:24:18.384Z,11.23
2018-09-28T13:26:46.677Z,4.70
2018-09-28T13:29:15.062Z,5.70
2018-09-28T13:31:43.378Z,6.43
2018-09-28T13:34:11.522Z,5.60
2018-09-28T13:36:39.626Z,5.33
2018-09-28T13:39:08.087Z,6.70
2018-09-28T13:41:36.659Z,4.10
2018-09-28T13:44:04.975Z,4.10
2018-09-28T13:46:33.122Z,5.90
2018-09-28T13:49:01.401Z,7.17
2018-09-28T13:51:29.760Z,5.63
2018-09-28T13:53:57.880Z,7.83
2018-09-28T13:56:26.024Z,7.33
2018-09-28T13:58:54.433Z,9.17
2018-09-28T14:01:22.554Z,5.80
2018-09-28T14:03:50.778Z,7.03
2018-09-28T14:06:18.973Z,5.60
2018-09-28T14:08:47.432Z,5.80
2018-09-28T14:11:15.870Z,7.30
2018-09-28T14:13:44.060Z,4.80
2018-09-28T14:16:12.200Z,5.17
2018-09-28T14:18:40.684Z,8.20
2018-09-28T14:21:09.038Z,4.70
2018-09-28T14:23:37.318Z,6.53
2018-09-28T14:26:05.401Z,8.53
2018-09-28T14:28:33.852Z,6.50
2018-09-28T14:31:02.174Z,6.47
2018-09-28T14:33:30.318Z,9.50
2018-09-28T14:35:58.488Z,6.67
2018-09-28T14:38:26.679Z,5.37
2018-09-28T14:40:54.997Z,6.87
2018-09-28T14:43:23.175Z,6.53
2018-09-28T14:45:51.282Z,11.30
2018-09-28T14:48:19.994Z,6.83
2018-09-28T14:50:48.504Z,14.03
2018-09-28T14:53:16.757Z,8.50
2018-09-28T14:55:44.995Z,6.80
2018-09-28T14:58:13.553Z,7.40
2018-09-28T15:00:41.970Z,7.67
2018-09-28T15:03:10.124Z,8.53
2018-09-28T15:05:38.314Z,8.03
2018-09-28T15:08:06.628Z,7.57
2018-09-28T15:10:34.972Z,10.07
2018-09-28T15:13:03.281Z,10.40
2018-09-28T15:15:31.349Z,6.60
2018-09-28T15:17:59.874Z,13.00
2018-09-28T15:20:28.024Z,6.40
2018-09-28T15:22:56.195Z,6.67
2018-09-28T15:25:24.411Z,7.93
2018-09-28T15:27:52.633Z,8.23
2018-09-28T15:30:21.060Z,8.20
2018-09-28T15:32:49.289Z,9.07
2018-09-28T15:35:17.453Z,6.90
2018-09-28T15:37:45.801Z,8.70
2018-09-28T15:40:13.944Z,8.57
2018-09-28T15:42:42.324Z,9.50
2018-09-28T15:45:10.642Z,10.00
2018-09-28T15:47:39.684Z,9.20
2018-09-28T15:50:09.051Z,10.83
2018-09-28T15:52:37.263Z,13.57
2018-09-28T15:55:05.727Z,12.20
2018-09-28T15:57:33.939Z,9.80
2018-09-28T16:00:02.132Z,9.27
2018-09-28T16:02:30.817Z,9.77
2018-09-28T16:04:59.110Z,11.33
2018-09-28T16:07:27.504Z,8.90
2018-09-28T16:09:55.557Z,9.30
2018-09-28T16:12:23.665Z,10.20
2018-09-28T16:14:51.827Z,10.10
2018-09-28T16:17:19.920Z,10.57
2018-09-28T16:19:48.096Z,14.93
2018-09-28T16:22:16.307Z,14.00
2018-09-28T16:24:44.571Z,9.47
2018-09-28T16:27:13.605Z,9.73
2018-09-28T16:29:41.802Z,9.33
2018-09-28T16:32:09.884Z,11.43
2018-09-28T16:34:38.078Z,12.00
2018-09-28T16:37:06.530Z,10.77
2018-09-28T16:39:34.809Z,10.07
2018-09-28T16:42:02.908Z,8.70
2018-09-28T16:44:31.041Z,8.57
2018-09-28T16:46:59.149Z,18.63
2018-09-28T16:49:27.235Z,11.53
2018-09-28T16:51:55.458Z,9.97
2018-09-28T16:54:23.698Z,9.67
2018-09-28T16:56:51.865Z,15.97
2018-09-28T16:59:20.101Z,10.13
2018-09-28T17:01:48.490Z,13.40
2018-09-28T17:04:17.437Z,11.00
2018-09-28T17:06:45.645Z,10.50
2018-09-28T17:09:13.819Z,10.70
2018-09-28T17:11:42.401Z,12.87
2018-09-28T17:14:10.583Z,13.37
2018-09-28T17:16:38.669Z,17.80
2018-09-28T17:19:06.912Z,17.70
2018-09-28T17:21:34.997Z,16.07
2018-09-28T17:24:03.230Z,17.30
2018-09-28T17:26:31.364Z,15.87
2018-09-28T17:28:59.456Z,14.93
2018-09-28T17:31:27.693Z,15.70
2018-09-28T17:33:55.812Z,14.90
2018-09-28T17:36:24.050Z,15.17
2018-09-28T17:38:52.277Z,17.43
2018-09-28T17:41:20.584Z,16.40
2018-09-28T17:43:49.169Z,14.63
2018-09-28T17:46:17.482Z,14.20
2018-09-28T17:48:45.645Z,11.00
2018-09-28T17:51:13.852Z,16.03
2018-09-28T17:53:42.088Z,12.00
2018-09-28T17:56:10.183Z,13.67
2018-09-28T17:58:38.397Z,17.43
2018-09-28T18:01:06.761Z,9.70
2018-09-28T18:03:34.841Z,10.80
2018-09-28T18:06:03.129Z,9.40
2018-09-28T18:08:31.485Z,11.20
2018-09-28T18:10:59.571Z,9.13
2018-09-28T18:13:28.447Z,10.00
2018-09-28T18:15:56.801Z,12.83
2018-09-28T18:18:24.907Z,9.30
2018-09-28T18:20:53.049Z,9.37
2018-09-28T18:23:21.129Z,7.83
2018-09-28T18:25:49.224Z,7.30
2018-09-28T18:28:17.958Z,10.43
2018-09-28T18:30:46.177Z,6.63
2018-09-28T18:33:14.546Z,8.43
2018-09-28T18:35:42.838Z,7.10
2018-09-28T18:38:11.077Z,6.20
2018-09-28T18:40:39.294Z,8.50
2018-09-28T18:43:07.512Z,13.03
2018-09-28T18:45:35.639Z,6.13
2018-09-28T18:48:03.772Z,7.43
2018-09-28T18:50:31.873Z,6.70
2018-09-28T18:52:59.986Z,6.00
2018-09-28T18:55:28.138Z,6.40
2018-09-28T18:57:56.232Z,5.50
2018-09-28T19:00:24.689Z,7.13
2018-09-28T19:02:53.409Z,7.47
2018-09-28T19:05:21.633Z,8.00
2018-09-28T19:07:49.769Z,6.13
2018-09-28T19:10:17.888Z,6.53
2018-09-28T19:12:46.047Z,6.10
2018-09-28T19:15:14.361Z,8.20
2018-09-28T19:17:42.467Z,10.23
2018-09-28T19:20:11.529Z,7.73
2018-09-28T19:22:39.601Z,8.47
2018-09-28T19:25:07.698Z,10.60
2018-09-28T19:27:35.939Z,7.50
2018-09-28T19:30:04.340Z,7.13
2018-09-28T19:32:32.563Z,9.93
2018-09-28T19:35:00.689Z,8.30
2018-09-28T19:37:28.798Z,8.33
2018-09-28T19:39:57.037Z,8.73
2018-09-28T19:42:25.165Z,8.87
2018-09-28T19:44:53.610Z,8.70
2018-09-28T19:47:21.881Z,9.30
2018-09-28T19:49:50.134Z,10.13
2018-09-28T19:52:18.829Z,9.33
2018-09-28T19:54:47.023Z,10.20
2018-09-28T19:57:15.312Z,11.17
2018-09-28T19:59:44.162Z,9.87
2018-09-28T20:02:12.377Z,9.33
2018-09-28T20:04:40.540Z,10.30
2018-09-28T20:07:08.633Z,9.93
2018-09-28T20:09:36.774Z,9.63
2018-09-28T20:12:05.150Z,9.93
2018-09-28T20:14:33.357Z,10.20
2018-09-28T20:17:01.637Z,9.17
2018-09-28T20:19:29.873Z,10.17
2018-09-28T20:21:58.057Z,9.87
2018-09-28T20:24:26.172Z,11.10
2018-09-28T20:26:54.719Z,10.77
2018-09-28T20:29:23.301Z,11.30
2018-09-28T20:31:51.384Z,10.83
2018-09-28T20:34:19.710Z,12.17
2018-09-28T20:36:47.821Z,11.50
2018-09-28T20:39:16.504Z,11.37
2018-09-28T20:41:44.714Z,10.90
2018-09-28T20:44:13.586Z,15.43
2018-09-28T20:46:41.696Z,14.40
2018-09-28T20:49:09.856Z,12.80
2018-09-28T20:51:37.990Z,12.73
2018-09-28T20:54:06.111Z,23.03
2018-09-28T20:56:34.243Z,14.17
2018-09-28T20:59:02.555Z,14.70
2018-09-28T21:01:30.740Z,17.33
2018-09-28T21:03:59.024Z,15.80
2018-09-28T21:06:27.167Z,18.13
2018-09-28T21:08:55.475Z,17.53
2018-09-28T21:11:23.632Z,18.27
2018-09-28T21:13:51.841Z,18.73
2018-09-28T21:16:20.957Z,21.83
2018-09-28T21:18:49.257Z,19.30
2018-09-28T21:21:17.723Z,18.57
2018-09-28T21:23:46.129Z,20.93
2018-09-28T21:26:14.497Z,18.23
2018-09-28T21:28:42.636Z,19.90
2018-09-28T21:31:10.842Z,22.10
2018-09-28T21:33:39.129Z,22.03
2018-09-28T21:36:07.261Z,21.83
2018-09-28T21:38:35.376Z,26.80
2018-09-28T21:41:03.670Z,23.17
2018-09-28T21:43:31.861Z,26.17
2018-09-28T21:46:00.749Z,20.37
2018-09-28T21:48:28.881Z,21.07
2018-09-28T21:50:57.045Z,23.73
2018-09-28T21:53:25.255Z,19.40
2018-09-28T21:55:53.420Z,21.20
2018-09-28T21:58:21.874Z,16.17
2018-09-28T22:00:55.529Z,17.57
2018-09-28T22:03:23.892Z,18.40
2018-09-28T22:05:52.376Z,16.90
2018-09-28T22:08:20.597Z,17.13
2018-09-28T22:10:48.915Z,16.53
2018-09-28T22:13:17.082Z,15.10
2018-09-28T22:15:45.233Z,17.73
2018-09-28T22:18:13.349Z,14.77
2018-09-28T22:20:41.465Z,19.57
2018-09-28T22:23:09.826Z,12.97
2018-09-28T22:25:37.881Z,12.97
2018-09-28T22:28:06.178Z,12.63
2018-09-28T22:30:34.314Z,15.83
2018-09-28T22:33:02.423Z,18.40
2018-09-28T22:35:30.533Z,16.30
2018-09-28T22:37:58.595Z,10.30
2018-09-28T22:40:26.877Z,12.47
2018-09-28T22:42:54.930Z,15.27
2018-09-28T22:45:23.385Z,13.57
2018-09-28T22:47:51.478Z,14.80
2018-09-28T22:50:19.573Z,11.07
2018-09-28T22:52:47.708Z,12.23
2018-09-28T22:55:15.975Z,11.40
2018-09-28T22:57:44.129Z,10.00
2018-09-28T23:00:12.229Z,10.07
2018-09-28T23:02:40.300Z,8.50
2018-09-28T23:05:08.581Z,9.10
2018-09-28T23:07:36.645Z,10.80
2018-09-28T23:10:04.888Z,11.43
2018-09-28T23:12:33.063Z,11.93
2018-09-28T23:15:01.233Z,10.43
2018-09-28T23:17:29.340Z,8.90
2018-09-28T23:19:57.421Z,8.90
2018-09-28T23:22:25.704Z,6.60
2018-09-28T23:24:53.817Z,7.43
2018-09-28T23:27:21.953Z,9.93
2018-09-28T23:29:50.063Z,8.17
2018-09-28T23:32:18.113Z,7.83
2018-09-28T23:34:46.280Z,9.10
2018-09-28T23:37:14.465Z,6.00
2018-09-28T23:39:42.798Z,4.97
2018-09-28T23:42:10.908Z,5.60
2018-09-28T23:44:38.964Z,8.30
2018-09-28T23:47:07.189Z,7.20
2018-09-28T23:49:35.236Z,8.73
2018-09-28T23:52:03.405Z,5.80
2018-09-28T23:54:31.465Z,6.40
2018-09-28T23:56:59.529Z,6.73
2018-09-28T23:59:27.655Z,4.80
